Time;durP1;ratioP1;P1;durP2;ratioP2;P2;SDS_P1;SDS_P2;PMS_P1;PMS_P2;Temp;Humidity;BMP_temperature;BMP_pressure;BME280_temperature;BME280_humidity;BME280_pressure;Samples;Min_cycle;Max_cycle;Signal;HPM_P1;HPM_P2
2023/01/11 00:01:18;;;;;;;0.47;0.30;;;;;;;;;;4210122;28;20503;-37
2023/01/11 00:03:20;;;;;;;0.20;0.15;;;;;;;;;;4206863;28;20549;-37
2023/01/11 00:05:21;;;;;;;0.20;0.10;;;;;;;;;;4199122;28;20052;-37
2023/01/11 00:07:23;;;;;;;0.28;0.20;;;;;;;;;;4203507;28;20053;-37
2023/01/11 00:09:24;;;;;;;0.47;0.22;;;;;;;;;;4211299;28;20381;-37
2023/01/11 00:11:25;;;;;;;0.75;0.17;;;;;;;;;;4206912;28;20074;-37
2023/01/11 00:13:28;;;;;;;0.20;0.10;;;;;;;;;;4200536;28;20074;-38
2023/01/11 00:15:29;;;;;;;0.22;0.10;;;;;;;;;;4195122;28;20061;-38
2023/01/11 00:17:31;;;;;;;0.32;0.10;;;;;;;;;;4199978;28;20059;-37
2023/01/11 00:19:32;;;;;;;0.55;0.20;;;;;;;;;;4177005;28;20053;-38
2023/01/11 00:21:33;;;;;;;0.30;0.20;;;;;;;;;;4212092;28;20441;-37
2023/01/11 00:23:36;;;;;;;0.10;0.10;;;;;;;;;;4211923;28;20105;-37
2023/01/11 00:25:37;;;;;;;0.25;0.20;;;;;;;;;;4211777;28;20101;-37
2023/01/11 00:27:39;;;;;;;0.63;0.20;;;;;;;;;;4206856;28;20565;-37
2023/01/11 00:29:40;;;;;;;0.38;0.30;;;;;;;;;;4212093;28;20048;-38
2023/01/11 00:31:41;;;;;;;0.55;0.30;;;;;;;;;;4203221;28;20053;-37
2023/01/11 00:33:43;;;;;;;0.63;0.30;;;;;;;;;;4208604;28;20060;-37
2023/01/11 00:35:44;;;;;;;0.30;0.20;;;;;;;;;;4209440;28;20519;-37
2023/01/11 00:37:46;;;;;;;0.45;0.30;;;;;;;;;;4193900;28;20064;-37
2023/01/11 00:39:47;;;;;;;0.43;0.20;;;;;;;;;;4211590;28;20052;-39
2023/01/11 00:48:48;;;;;;;0.88;0.40;;;;;;;;;;4206955;28;20134;-37
2023/01/11 00:50:51;;;;;;;0.52;0.35;;;;;;;;;;4182024;28;20559;-38
2023/01/11 00:52:53;;;;;;;0.20;0.10;;;;;;;;;;4188831;28;20056;-37
2023/01/11 00:54:54;;;;;;;0.20;0.20;;;;;;;;;;4209117;28;20056;-38
2023/01/11 00:56:55;;;;;;;0.30;0.17;;;;;;;;;;4213526;28;20118;-38
2023/01/11 00:58:56;;;;;;;0.20;0.13;;;;;;;;;;4209930;28;20098;-37
2023/01/11 01:00:57;;;;;;;0.40;0.20;;;;;;;;;;4192177;28;20071;-37
2023/01/11 01:02:58;;;;;;;0.30;0.10;;;;;;;;;;4209858;28;20411;-38
2023/01/11 01:05:00;;;;;;;0.32;0.30;;;;;;;;;;4204178;28;20061;-37
2023/01/11 01:07:01;;;;;;;0.35;0.10;;;;;;;;;;4206864;28;20467;-37
2023/01/11 01:09:02;;;;;;;0.68;0.30;;;;;;;;;;4202171;28;20052;-37
2023/01/11 01:11:04;;;;;;;0.30;0.13;;;;;;;;;;4214474;28;20513;-37
2023/01/11 01:15:25;;;;;;;0.85;0.38;;;;;;;;;;4196795;28;20056;-38
2023/01/11 01:17:26;;;;;;;0.15;0.15;;;;;;;;;;4214534;28;20068;-38
2023/01/11 01:19:29;;;;;;;0.40;0.20;;;;;;;;;;4214158;28;20379;-37
2023/01/11 01:21:31;;;;;;;0.20;0.20;;;;;;;;;;4196690;28;20053;-37
2023/01/11 01:23:32;;;;;;;0.57;0.30;;;;;;;;;;4196236;28;20380;-37
2023/01/11 01:25:35;;;;;;;0.50;0.20;;;;;;;;;;4209264;28;20105;-38
2023/01/11 01:27:37;;;;;;;0.60;0.20;;;;;;;;;;4175330;28;20060;-37
2023/01/11 01:29:38;;;;;;;0.70;0.20;;;;;;;;;;4206644;28;20071;-37
2023/01/11 01:31:40;;;;;;;0.38;0.20;;;;;;;;;;4210181;28;20055;-37
2023/01/11 01:33:41;;;;;;;0.63;0.25;;;;;;;;;;4214545;28;20065;-37
2023/01/11 01:35:43;;;;;;;0.10;0.10;;;;;;;;;;4214172;28;20556;-37
2023/01/11 01:37:44;;;;;;;0.45;0.20;;;;;;;;;;4194071;28;20352;-37
2023/01/11 01:39:45;;;;;;;0.52;0.45;;;;;;;;;;4210875;28;20052;-38
2023/01/11 01:41:47;;;;;;;0.20;0.20;;;;;;;;;;4191924;28;20063;-37
2023/01/11 01:43:57;;;;;;;0.63;0.20;;;;;;;;;;4209752;28;20442;-37
2023/01/11 01:45:58;;;;;;;0.47;0.30;;;;;;;;;;4209701;28;20052;-37
2023/01/11 01:48:00;;;;;;;0.63;0.20;;;;;;;;;;4208644;28;20455;-37
2023/01/11 01:50:11;;;;;;;0.32;0.20;;;;;;;;;;4183859;28;20053;-38
2023/01/11 01:52:13;;;;;;;0.30;0.20;;;;;;;;;;4159093;28;20064;-37
2023/01/11 01:54:18;;;;;;;0.90;0.20;;;;;;;;;;4197195;28;20052;-37
2023/01/11 01:56:36;;;;;;;0.10;0.10;;;;;;;;;;4210728;28;20109;-37
2023/01/11 01:58:44;;;;;;;0.38;0.20;;;;;;;;;;4204574;28;20063;-37
2023/01/11 02:00:45;;;;;;;0.45;0.30;;;;;;;;;;4202245;28;20048;-38
2023/01/11 02:02:48;;;;;;;0.75;0.20;;;;;;;;;;4192637;28;20059;-37
2023/01/11 02:04:50;;;;;;;1.08;0.30;;;;;;;;;;4196995;28;20044;-37
2023/01/11 02:06:58;;;;;;;0.40;0.20;;;;;;;;;;4163033;28;20053;-37
2023/01/11 02:09:06;;;;;;;0.50;0.28;;;;;;;;;;4156657;28;20065;-37
2023/01/11 02:11:28;;;;;;;1.20;0.20;;;;;;;;;;4177892;28;20091;-37
2023/01/11 02:13:30;;;;;;;0.52;0.30;;;;;;;;;;4156765;28;20108;-38
2023/01/11 02:15:31;;;;;;;0.38;0.20;;;;;;;;;;4179531;28;20049;-37
2023/01/11 02:17:33;;;;;;;0.50;0.20;;;;;;;;;;4177820;28;20063;-37
2023/01/11 02:19:46;;;;;;;0.35;0.20;;;;;;;;;;4191579;28;20099;-37
2023/01/11 02:22:05;;;;;;;0.43;0.20;;;;;;;;;;4179215;28;20485;-37
2023/01/11 02:24:45;;;;;;;0.40;0.28;;;;;;;;;;4178355;28;20053;-37
2023/01/11 02:26:54;;;;;;;0.38;0.25;;;;;;;;;;4197235;28;20067;-37
2023/01/11 02:29:14;;;;;;;0.47;0.30;;;;;;;;;;4213477;28;20097;-35
2023/01/11 02:31:27;;;;;;;0.80;0.30;;;;;;;;;;4153759;28;20061;-37
2023/01/11 02:33:37;;;;;;;0.30;0.13;;;;;;;;;;4207042;28;20536;-38
2023/01/11 02:36:09;;;;;;;0.20;0.20;;;;;;;;;;4199269;28;20063;-37
2023/01/11 02:38:19;;;;;;;0.82;0.20;;;;;;;;;;4144363;28;20056;-37
2023/01/11 02:40:29;;;;;;;0.57;0.30;;;;;;;;;;4209261;28;20044;-37
2023/01/11 02:45:26;;;;;;;0.60;0.30;;;;;;;;;;4196448;28;20060;-37
2023/01/11 02:47:47;;;;;;;0.40;0.20;;;;;;;;;;4183855;28;20056;-38
2023/01/11 02:50:13;;;;;;;0.10;0.10;;;;;;;;;;4178636;28;20266;-37
2023/01/11 02:52:24;;;;;;;0.30;0.20;;;;;;;;;;4185567;28;20053;-37
2023/01/11 02:54:26;;;;;;;0.75;0.30;;;;;;;;;;4202982;28;20059;-37
2023/01/11 02:56:30;;;;;;;1.58;0.30;;;;;;;;;;4203119;28;20052;-37
2023/01/11 02:58:34;;;;;;;0.45;0.20;;;;;;;;;;4178274;28;20472;-37
2023/01/11 03:00:37;;;;;;;0.20;0.10;;;;;;;;;;4165595;28;20464;-37
2023/01/11 03:02:38;;;;;;;0.10;0.10;;;;;;;;;;4178639;28;20496;-38
2023/01/11 03:04:40;;;;;;;0.40;0.20;;;;;;;;;;4196368;28;20052;-37
2023/01/11 03:06:41;;;;;;;1.00;0.20;;;;;;;;;;4208771;28;20457;-37
2023/01/11 03:08:57;;;;;;;0.20;0.15;;;;;;;;;;4191242;28;20100;-37
2023/01/11 03:11:13;;;;;;;0.28;0.13;;;;;;;;;;4195852;28;20053;-37
2023/01/11 03:13:17;;;;;;;0.25;0.10;;;;;;;;;;4196068;28;20488;-37
2023/01/11 03:15:48;;;;;;;0.50;0.22;;;;;;;;;;4186032;28;20052;-37
2023/01/11 03:18:07;;;;;;;0.52;0.20;;;;;;;;;;4184634;28;20083;-37
2023/01/11 03:20:17;;;;;;;0.17;0.17;;;;;;;;;;4191133;28;20052;-38
2023/01/11 03:22:23;;;;;;;;;;;;;;;;;;4178738;28;20094;-37
2023/01/11 03:24:31;;;;;;;0.15;0.13;;;;;;;;;;4195509;28;20394;-39
2023/01/11 03:27:12;;;;;;;0.30;0.30;;;;;;;;;;4209386;28;20116;-39
2023/01/11 03:29:31;;;;;;;0.28;0.17;;;;;;;;;;4181747;28;20103;-39
2023/01/11 03:31:48;;;;;;;0.30;0.10;;;;;;;;;;4197251;28;20431;-39
2023/01/11 03:34:26;;;;;;;0.10;0.10;;;;;;;;;;4187779;28;20091;-39
2023/01/11 03:36:32;;;;;;;0.30;0.20;;;;;;;;;;4151130;28;20056;-39
2023/01/11 03:38:42;;;;;;;0.13;0.10;;;;;;;;;;4195796;28;20435;-39
2023/01/11 03:40:47;;;;;;;0.35;0.28;;;;;;;;;;4187170;28;20045;-39
2023/01/11 03:43:10;;;;;;;0.40;0.20;;;;;;;;;;4181409;28;20052;-39
2023/01/11 03:45:12;;;;;;;0.50;0.20;;;;;;;;;;4180545;28;20162;-39
2023/01/11 03:47:14;;;;;;;0.20;0.20;;;;;;;;;;4186797;28;20512;-39
2023/01/11 03:49:29;;;;;;;0.22;0.17;;;;;;;;;;4199622;28;20056;-39
2023/01/11 03:51:36;;;;;;;0.60;0.25;;;;;;;;;;4181863;28;20060;-39
2023/01/11 03:53:37;;;;;;;0.80;0.60;;;;;;;;;;4177807;28;20087;-39
2023/01/11 03:55:41;;;;;;;0.40;0.20;;;;;;;;;;4171525;28;20127;-39
2023/01/11 03:57:50;;;;;;;0.10;0.10;;;;;;;;;;4161065;28;20128;-39
2023/01/11 03:59:52;;;;;;;0.28;0.10;;;;;;;;;;4182385;28;20049;-39
2023/01/11 04:01:54;;;;;;;0.47;0.20;;;;;;;;;;4161354;28;20160;-39
2023/01/11 04:03:55;;;;;;;0.20;0.20;;;;;;;;;;4190075;28;20055;-38
2023/01/11 04:05:59;;;;;;;0.20;0.20;;;;;;;;;;4195254;28;20125;-39
2023/01/11 04:08:00;;;;;;;0.40;0.20;;;;;;;;;;4161324;28;20524;-38
2023/01/11 04:10:02;;;;;;;0.20;0.20;;;;;;;;;;4185969;28;20049;-39
2023/01/11 04:12:03;;;;;;;0.70;0.30;;;;;;;;;;4205419;28;20051;-39
2023/01/11 04:14:04;;;;;;;0.10;0.10;;;;;;;;;;4197872;28;20500;-39
2023/01/11 04:16:06;;;;;;;0.30;0.25;;;;;;;;;;4195537;28;20284;-39
2023/01/11 04:18:08;;;;;;;0.30;0.22;;;;;;;;;;4195608;28;20541;-39
2023/01/11 04:20:10;;;;;;;0.63;0.30;;;;;;;;;;4177466;28;20064;-39
2023/01/11 04:22:11;;;;;;;0.10;0.10;;;;;;;;;;4177529;28;20060;-39
2023/01/11 04:24:13;;;;;;;0.43;0.20;;;;;;;;;;4197110;28;20049;-39
2023/01/11 04:26:16;;;;;;;0.28;0.20;;;;;;;;;;4206472;28;20125;-39
2023/01/11 04:28:17;;;;;;;0.73;0.30;;;;;;;;;;4204618;28;20060;-39
2023/01/11 04:30:18;;;;;;;0.65;0.30;;;;;;;;;;4199867;28;20094;-39
2023/01/11 04:32:20;;;;;;;0.30;0.20;;;;;;;;;;4197800;28;20056;-39
2023/01/11 04:34:21;;;;;;;0.30;0.30;;;;;;;;;;4203425;28;20360;-39
2023/01/11 04:36:24;;;;;;;0.35;0.20;;;;;;;;;;4207190;28;20056;-39
2023/01/11 04:38:26;;;;;;;0.63;0.30;;;;;;;;;;4198712;28;20143;-39
2023/01/11 04:40:27;;;;;;;0.55;0.32;;;;;;;;;;4211355;28;20124;-39
2023/01/11 04:42:28;;;;;;;0.60;0.20;;;;;;;;;;4202494;28;20097;-39
2023/01/11 04:44:29;;;;;;;0.77;0.15;;;;;;;;;;4207890;28;20056;-39
2023/01/11 04:46:31;;;;;;;0.30;0.10;;;;;;;;;;4180759;28;20381;-41
2023/01/11 04:48:32;;;;;;;0.30;0.20;;;;;;;;;;4188766;28;20075;-39
2023/01/11 04:50:33;;;;;;;0.10;0.10;;;;;;;;;;4185198;28;20049;-37
2023/01/11 04:52:35;;;;;;;0.25;0.20;;;;;;;;;;4198294;28;20064;-37
2023/01/11 04:54:37;;;;;;;1.20;0.30;;;;;;;;;;4197944;28;20098;-37
2023/01/11 04:56:38;;;;;;;0.50;0.20;;;;;;;;;;4198513;28;20052;-37
2023/01/11 04:58:39;;;;;;;0.40;0.13;;;;;;;;;;4211226;28;20078;-38
2023/01/11 05:00:41;;;;;;;0.20;0.10;;;;;;;;;;4174679;28;20136;-37
2023/01/11 05:02:42;;;;;;;0.40;0.20;;;;;;;;;;4189897;28;20455;-37
2023/01/11 05:04:44;;;;;;;0.17;0.17;;;;;;;;;;4197955;28;20052;-38
2023/01/11 05:06:45;;;;;;;0.40;0.20;;;;;;;;;;4198999;28;20056;-38
2023/01/11 05:08:47;;;;;;;0.28;0.28;;;;;;;;;;4210864;28;20064;-38
2023/01/11 05:10:56;;;;;;;0.45;0.20;;;;;;;;;;4189951;28;20053;-38
2023/01/11 05:12:57;;;;;;;0.85;0.20;;;;;;;;;;4193080;28;20060;-37
2023/01/11 05:14:58;;;;;;;0.57;0.20;;;;;;;;;;4211310;28;20411;-37
2023/01/11 05:16:59;;;;;;;0.43;0.20;;;;;;;;;;4197143;28;20353;-37
2023/01/11 05:19:02;;;;;;;0.47;0.20;;;;;;;;;;4197939;28;20056;-37
2023/01/11 05:21:05;;;;;;;0.40;0.10;;;;;;;;;;4198239;28;20102;-37
2023/01/11 05:23:06;;;;;;;1.00;0.20;;;;;;;;;;4211538;28;20063;-38
2023/01/11 05:25:08;;;;;;;1.38;0.30;;;;;;;;;;4201236;28;20085;-38
2023/01/11 05:27:09;;;;;;;0.57;0.22;;;;;;;;;;4189773;28;20052;-38
2023/01/11 05:29:14;;;;;;;0.10;0.10;;;;;;;;;;4191105;28;20052;-37
2023/01/11 05:31:16;;;;;;;0.73;0.30;;;;;;;;;;4211435;28;20064;-38
2023/01/11 05:33:18;;;;;;;0.40;0.38;;;;;;;;;;4201176;28;20101;-38
2023/01/11 05:35:20;;;;;;;0.25;0.20;;;;;;;;;;4189774;28;20060;-37
2023/01/11 05:37:21;;;;;;;0.70;0.20;;;;;;;;;;4179256;28;20433;-38
2023/01/11 05:39:22;;;;;;;0.38;0.13;;;;;;;;;;4195604;28;20052;-38
2023/01/11 05:41:25;;;;;;;0.70;0.30;;;;;;;;;;4197431;28;20053;-38
2023/01/11 05:43:27;;;;;;;1.00;0.20;;;;;;;;;;4179726;28;20056;-39
2023/01/11 05:45:30;;;;;;;0.35;0.30;;;;;;;;;;4189799;28;20416;-38
2023/01/11 05:47:32;;;;;;;1.15;0.25;;;;;;;;;;4197275;28;20420;-38
2023/01/11 05:49:33;;;;;;;0.65;0.28;;;;;;;;;;4211040;28;20045;-39
2023/01/11 05:51:35;;;;;;;0.32;0.15;;;;;;;;;;4202534;28;20488;-39
2023/01/11 05:53:37;;;;;;;0.52;0.30;;;;;;;;;;4214502;28;20063;-39
2023/01/11 05:55:38;;;;;;;0.38;0.20;;;;;;;;;;4184152;28;20053;-39
2023/01/11 05:57:43;;;;;;;0.77;0.30;;;;;;;;;;4178299;28;20048;-39
2023/01/11 05:59:44;;;;;;;0.38;0.30;;;;;;;;;;4209094;28;20045;-39
2023/01/11 06:01:46;;;;;;;0.43;0.20;;;;;;;;;;4197130;28;20129;-39
2023/01/11 06:03:47;;;;;;;0.82;0.50;;;;;;;;;;4182990;28;20056;-39
2023/01/11 06:05:49;;;;;;;0.90;0.15;;;;;;;;;;4193155;28;20313;-39
2023/01/11 06:07:52;;;;;;;2.15;0.20;;;;;;;;;;4189955;28;20522;-39
2023/01/11 06:09:54;;;;;;;0.52;0.30;;;;;;;;;;4194889;28;20052;-39
2023/01/11 06:11:55;;;;;;;0.88;0.30;;;;;;;;;;4194920;28;20056;-39
2023/01/11 06:13:56;;;;;;;1.15;0.40;;;;;;;;;;4194624;28;20531;-39
2023/01/11 06:16:00;;;;;;;1.10;0.50;;;;;;;;;;4181344;28;20052;-39
2023/01/11 06:18:02;;;;;;;2.63;0.38;;;;;;;;;;4177525;28;20134;-38
2023/01/11 06:20:03;;;;;;;0.80;0.40;;;;;;;;;;4187941;28;20052;-38
2023/01/11 06:22:05;;;;;;;1.52;0.47;;;;;;;;;;4190237;28;20056;-38
2023/01/11 06:24:06;;;;;;;3.58;0.47;;;;;;;;;;4196704;28;20056;-38
2023/01/11 06:26:11;;;;;;;1.13;0.22;;;;;;;;;;4206051;28;20164;-38
2023/01/11 06:28:12;;;;;;;0.50;0.30;;;;;;;;;;4176933;28;20057;-38
2023/01/11 06:30:14;;;;;;;0.98;0.40;;;;;;;;;;4190779;28;20063;-39
2023/01/11 06:32:15;;;;;;;1.65;0.30;;;;;;;;;;4182100;28;20045;-38
2023/01/11 06:34:16;;;;;;;1.75;0.50;;;;;;;;;;4189351;28;20535;-38
2023/01/11 06:36:17;;;;;;;1.00;0.50;;;;;;;;;;4175770;28;20083;-38
2023/01/11 06:38:20;;;;;;;0.95;0.52;;;;;;;;;;4194718;28;20064;-38
2023/01/11 06:40:22;;;;;;;1.20;0.30;;;;;;;;;;4207741;28;20055;-38
2023/01/11 06:42:23;;;;;;;0.73;0.30;;;;;;;;;;4177134;28;20486;-39
2023/01/11 06:44:25;;;;;;;1.92;0.60;;;;;;;;;;4202159;28;20055;-40
2023/01/11 06:46:26;;;;;;;2.25;0.57;;;;;;;;;;4179181;28;20053;-37
2023/01/11 06:48:27;;;;;;;2.75;0.75;;;;;;;;;;4204767;28;20136;-38
2023/01/11 06:50:28;;;;;;;1.55;0.50;;;;;;;;;;4210856;28;20447;-38
2023/01/11 06:52:29;;;;;;;1.52;0.60;;;;;;;;;;4211165;28;20113;-38
2023/01/11 06:54:31;;;;;;;0.88;0.30;;;;;;;;;;4210047;28;20063;-38
2023/01/11 06:56:32;;;;;;;1.95;0.63;;;;;;;;;;4205857;28;20064;-43
2023/01/11 06:58:34;;;;;;;4.13;0.52;;;;;;;;;;4202575;28;20052;-38
2023/01/11 07:00:37;;;;;;;1.45;0.50;;;;;;;;;;4210699;28;20055;-39
2023/01/11 07:02:38;;;;;;;1.48;0.63;;;;;;;;;;4210895;28;20051;-38
2023/01/11 07:04:39;;;;;;;0.82;0.50;;;;;;;;;;4192016;28;20198;-38
2023/01/11 07:06:41;;;;;;;2.67;0.60;;;;;;;;;;4182753;28;20057;-38
2023/01/11 07:08:42;;;;;;;3.58;0.75;;;;;;;;;;4193602;28;20048;-41
2023/01/11 07:10:44;;;;;;;1.67;0.50;;;;;;;;;;4184336;28;20114;-38
2023/01/11 07:12:45;;;;;;;2.13;1.23;;;;;;;;;;4191831;28;20153;-35
2023/01/11 07:14:47;;;;;;;2.42;0.50;;;;;;;;;;4185330;28;20110;-38
2023/01/11 07:16:49;;;;;;;3.83;0.70;;;;;;;;;;4180776;28;20393;-39
2023/01/11 07:18:50;;;;;;;2.95;0.60;;;;;;;;;;4154559;28;20090;-36
2023/01/11 07:20:52;;;;;;;3.20;1.02;;;;;;;;;;4168799;28;21370;-38
2023/01/11 07:22:58;;;;;;;2.80;0.65;;;;;;;;;;4179896;28;20503;-39
2023/01/11 07:24:59;;;;;;;2.20;0.80;;;;;;;;;;4178154;28;20060;-39
2023/01/11 07:27:00;;;;;;;2.10;0.52;;;;;;;;;;4184533;28;20052;-37
2023/01/11 07:29:01;;;;;;;1.35;0.60;;;;;;;;;;4182739;28;20090;-37
2023/01/11 07:31:03;;;;;;;3.83;0.73;;;;;;;;;;4182045;28;20057;-37
2023/01/11 07:33:06;;;;;;;3.75;0.65;;;;;;;;;;4177582;28;20071;-39
2023/01/11 07:35:08;;;;;;;2.25;0.68;;;;;;;;;;4182290;28;20067;-38
2023/01/11 07:37:09;;;;;;;1.17;0.50;;;;;;;;;;4181437;28;20052;-39
2023/01/11 07:39:10;;;;;;;2.55;0.65;;;;;;;;;;4157470;28;20099;-38
2023/01/11 07:43:32;;;;;;;;;;;;;;;;;;4140369;28;20110;-38
2023/01/11 07:45:34;;;;;;;5.22;0.80;;;;;;;;;;4168273;28;20291;-36
2023/01/11 07:47:35;;;;;;;2.33;1.15;;;;;;;;;;4175704;28;20383;-40
2023/01/11 07:49:36;;;;;;;5.35;1.17;;;;;;;;;;4172084;28;20056;-38
2023/01/11 07:51:38;;;;;;;6.85;1.08;;;;;;;;;;4172782;28;20052;-39
2023/01/11 07:53:39;;;;;;;3.83;1.27;;;;;;;;;;4154241;28;20524;-38
2023/01/11 07:55:40;;;;;;;3.17;1.30;;;;;;;;;;4161038;28;20053;-38
2023/01/11 07:57:42;;;;;;;10.63;1.40;;;;;;;;;;4170151;28;20107;-38
2023/01/11 07:59:43;;;;;;;4.38;1.50;;;;;;;;;;4163947;28;20484;-38
2023/01/11 08:01:45;;;;;;;8.45;1.55;;;;;;;;;;4157065;28;21461;-38
2023/01/11 08:03:46;;;;;;;7.70;1.50;;;;;;;;;;4157517;28;20428;-37
2023/01/11 08:05:50;;;;;;;8.00;1.42;;;;;;;;;;4167506;28;20048;-39
2023/01/11 08:07:51;;;;;;;5.20;1.83;;;;;;;;;;4175718;28;21177;-37
2023/01/11 08:09:52;;;;;;;8.98;1.88;;;;;;;;;;4157526;28;20412;-38
2023/01/11 08:16:33;;;;;;;5.10;1.52;;;;;;;;;;4171814;28;20654;-36
2023/01/11 08:18:34;;;;;;;14.25;2.15;;;;;;;;;;4177387;28;20130;-38
2023/01/11 08:20:36;;;;;;;8.80;1.88;;;;;;;;;;4170991;28;20970;-37
2023/01/11 08:22:37;;;;;;;7.88;1.55;;;;;;;;;;4161557;28;20056;-37
2023/01/11 08:24:39;;;;;;;6.80;1.08;;;;;;;;;;4163110;28;20083;-38
2023/01/11 08:26:40;;;;;;;7.18;1.65;;;;;;;;;;4172298;28;20061;-36
2023/01/11 08:28:42;;;;;;;11.40;1.88;;;;;;;;;;4171202;28;20057;-37
2023/01/11 08:30:44;;;;;;;8.50;1.67;;;;;;;;;;4179158;28;21503;-36
2023/01/11 08:32:45;;;;;;;6.47;1.48;;;;;;;;;;4157232;28;20096;-37
2023/01/11 08:34:47;;;;;;;7.40;1.20;;;;;;;;;;4173545;28;20060;-36
2023/01/11 08:36:48;;;;;;;4.40;1.15;;;;;;;;;;4177081;28;20052;-35
2023/01/11 08:38:55;;;;;;;16.35;2.15;;;;;;;;;;4175575;28;20069;-37
2023/01/11 08:40:57;;;;;;;4.30;1.45;;;;;;;;;;4179155;28;20752;-37
2023/01/11 08:42:58;;;;;;;8.15;1.40;;;;;;;;;;4172928;28;20083;-36
2023/01/11 08:44:59;;;;;;;9.93;1.67;;;;;;;;;;4170933;28;20064;-36
2023/01/11 08:47:01;;;;;;;7.53;1.65;;;;;;;;;;4168853;28;20057;-37
2023/01/11 08:49:09;;;;;;;9.75;1.67;;;;;;;;;;4171497;28;21625;-36
2023/01/11 08:51:12;;;;;;;5.13;1.10;;;;;;;;;;4166960;28;20117;-38
2023/01/11 08:53:14;;;;;;;5.90;1.58;;;;;;;;;;4170585;28;20056;-37
2023/01/11 08:55:16;;;;;;;9.85;1.65;;;;;;;;;;4153157;28;20061;-35
2023/01/11 08:57:17;;;;;;;6.03;1.63;;;;;;;;;;4169442;28;20064;-38
2023/01/11 08:59:20;;;;;;;7.47;1.27;;;;;;;;;;4173818;28;20061;-38
2023/01/11 09:01:22;;;;;;;8.02;1.60;;;;;;;;;;4162054;28;20060;-36
2023/01/11 09:03:23;;;;;;;4.47;1.27;;;;;;;;;;4162045;28;20057;-36
2023/01/11 09:05:25;;;;;;;2.90;1.20;;;;;;;;;;4164606;28;20157;-38
2023/01/11 09:07:26;;;;;;;2.90;0.77;;;;;;;;;;4160957;28;20113;-36
2023/01/11 09:09:27;;;;;;;4.28;1.38;;;;;;;;;;4167030;28;20109;-37
2023/01/11 09:13:49;;;;;;;4.63;1.20;;;;;;;;;;4162143;28;20439;-34
2023/01/11 09:15:54;;;;;;;2.63;1.10;;;;;;;;;;4163723;28;20452;-37
2023/01/11 09:17:55;;;;;;;4.97;1.00;;;;;;;;;;4166483;28;20158;-36
2023/01/11 09:19:57;;;;;;;6.15;1.25;;;;;;;;;;4161185;28;20488;-37
2023/01/11 09:22:02;;;;;;;4.78;1.02;;;;;;;;;;4147593;28;20068;-38
2023/01/11 09:24:03;;;;;;;4.30;1.15;;;;;;;;;;4147088;28;20064;-38
2023/01/11 09:26:05;;;;;;;7.40;1.08;;;;;;;;;;4152853;28;20111;-39
2023/01/11 09:28:06;;;;;;;7.85;1.35;;;;;;;;;;4138615;28;20203;-37
2023/01/11 09:30:08;;;;;;;3.72;1.13;;;;;;;;;;4162621;28;20106;-39
2023/01/11 09:32:10;;;;;;;6.43;1.75;;;;;;;;;;4169710;28;20324;-37
2023/01/11 09:34:12;;;;;;;5.78;1.52;;;;;;;;;;4164004;28;20065;-39
2023/01/11 09:36:13;;;;;;;7.90;1.65;;;;;;;;;;4167667;28;20705;-39
2023/01/11 09:38:15;;;;;;;7.03;1.60;;;;;;;;;;4167395;28;20059;-39
2023/01/11 09:40:52;;;;;;;4.03;1.25;;;;;;;;;;4167129;28;20759;-38
2023/01/11 09:42:58;;;;;;;4.63;1.33;;;;;;;;;;4161407;28;20128;-37
2023/01/11 09:45:17;;;;;;;8.82;1.17;;;;;;;;;;4167538;28;20056;-36
2023/01/11 09:47:32;;;;;;;8.73;1.70;;;;;;;;;;4150109;28;20061;-38
2023/01/11 09:49:39;;;;;;;6.15;1.67;;;;;;;;;;4161346;28;20497;-36
2023/01/11 09:51:41;;;;;;;5.78;1.67;;;;;;;;;;4159730;28;20118;-36
2023/01/11 09:53:48;;;;;;;10.77;2.00;;;;;;;;;;4152071;28;20124;-36
2023/01/11 09:55:51;;;;;;;5.28;1.45;;;;;;;;;;4154765;28;20053;-37
2023/01/11 09:58:27;;;;;;;10.07;2.65;;;;;;;;;;4160088;28;20155;-38
2023/01/11 10:00:47;;;;;;;12.20;2.20;;;;;;;;;;4162850;28;20529;-38
2023/01/11 10:03:12;;;;;;;11.70;2.10;;;;;;;;;;4156539;28;20053;-38
2023/01/11 10:05:34;;;;;;;6.10;1.80;;;;;;;;;;4147723;28;20061;-38
2023/01/11 10:08:05;;;;;;;4.85;1.88;;;;;;;;;;4149223;28;20061;-36
2023/01/11 10:10:19;;;;;;;10.32;1.63;;;;;;;;;;4175860;28;20052;-38
2023/01/11 10:12:42;;;;;;;8.95;2.50;;;;;;;;;;4168029;28;20053;-38
2023/01/11 10:14:49;;;;;;;8.30;2.00;;;;;;;;;;4156652;28;20119;-36
2023/01/11 10:16:55;;;;;;;8.75;1.60;;;;;;;;;;4167668;28;20052;-36
2023/01/11 10:19:13;;;;;;;6.97;2.08;;;;;;;;;;4173762;28;20067;-36
2023/01/11 10:21:44;;;;;;;7.50;2.10;;;;;;;;;;4148639;28;20053;-35
2023/01/11 10:24:02;;;;;;;7.30;1.70;;;;;;;;;;4166090;28;20479;-37
2023/01/11 10:26:11;;;;;;;10.98;1.60;;;;;;;;;;4171435;28;20052;-38
2023/01/11 10:28:31;;;;;;;5.82;2.03;;;;;;;;;;4169587;28;20060;-38
2023/01/11 10:38:48;;;;;;;5.68;1.35;;;;;;;;;;4136865;28;20116;-38
2023/01/11 10:41:09;;;;;;;7.32;1.50;;;;;;;;;;4169197;28;20667;-37
2023/01/11 10:43:18;;;;;;;4.97;1.73;;;;;;;;;;4159088;28;20063;-39
2023/01/11 10:45:24;;;;;;;4.63;1.45;;;;;;;;;;4169817;28;20118;-36
2023/01/11 10:47:40;;;;;;;3.38;1.10;;;;;;;;;;4142700;28;20103;-36
2023/01/11 10:49:55;;;;;;;4.40;1.10;;;;;;;;;;4169240;28;20060;-37
2023/01/11 10:52:13;;;;;;;5.88;1.10;;;;;;;;;;4156368;28;20057;-38
2023/01/11 10:54:19;;;;;;;2.75;1.35;;;;;;;;;;4144550;28;20131;-36
2023/01/11 10:56:38;;;;;;;7.70;1.20;;;;;;;;;;4146950;28;20053;-36
2023/01/11 10:59:20;;;;;;;4.13;1.50;;;;;;;;;;4126786;28;20313;-35
2023/01/11 11:01:49;;;;;;;2.63;1.15;;;;;;;;;;4151684;28;20056;-35
2023/01/11 11:04:02;;;;;;;2.72;1.20;;;;;;;;;;4161752;28;20059;-36
2023/01/11 11:06:32;;;;;;;2.80;1.08;;;;;;;;;;4162639;28;20060;-39
2023/01/11 11:08:47;;;;;;;3.67;1.00;;;;;;;;;;4129801;28;20065;-35
2023/01/11 11:10:55;;;;;;;3.05;0.93;;;;;;;;;;4151126;28;20057;-37
2023/01/11 11:13:01;;;;;;;3.35;1.20;;;;;;;;;;4149432;28;20062;-37
2023/01/11 11:15:13;;;;;;;4.63;1.02;;;;;;;;;;4157122;28;20132;-35
2023/01/11 11:17:29;;;;;;;4.50;1.00;;;;;;;;;;4176882;28;20045;-36
2023/01/11 11:19:32;;;;;;;2.83;0.90;;;;;;;;;;4182244;28;20129;-39
2023/01/11 11:21:37;;;;;;;1.58;0.80;;;;;;;;;;4162874;28;20061;-37
2023/01/11 11:23:38;;;;;;;2.85;0.68;;;;;;;;;;4164807;28;20532;-38
2023/01/11 11:25:40;;;;;;;2.40;0.70;;;;;;;;;;4163968;28;20064;-38
2023/01/11 11:27:49;;;;;;;2.70;0.70;;;;;;;;;;4166256;28;20061;-38
2023/01/11 11:29:53;;;;;;;2.05;0.65;;;;;;;;;;4181521;28;20056;-38
2023/01/11 11:31:55;;;;;;;1.48;0.60;;;;;;;;;;4159527;28;20742;-37
2023/01/11 11:34:05;;;;;;;4.13;0.70;;;;;;;;;;4175310;28;20505;-37
2023/01/11 11:36:09;;;;;;;1.77;0.63;;;;;;;;;;4181329;28;20061;-39
2023/01/11 11:38:23;;;;;;;1.75;0.63;;;;;;;;;;4168532;28;20106;-38
2023/01/11 11:40:36;;;;;;;4.45;1.20;;;;;;;;;;4180536;28;20104;-36
2023/01/11 11:42:38;;;;;;;3.05;1.08;;;;;;;;;;4167225;28;20450;-38
2023/01/11 11:44:39;;;;;;;1.42;0.73;;;;;;;;;;4164878;28;20567;-35
2023/01/11 11:47:04;;;;;;;5.18;1.15;;;;;;;;;;4151867;28;20056;-37
2023/01/11 11:49:15;;;;;;;1.85;0.68;;;;;;;;;;4167157;28;20060;-40
2023/01/11 11:51:21;;;;;;;2.67;0.93;;;;;;;;;;4171479;28;20163;-38
2023/01/11 11:53:25;;;;;;;5.72;1.08;;;;;;;;;;4155782;28;20107;-40
2023/01/11 11:55:29;;;;;;;1.73;0.77;;;;;;;;;;4172418;28;20052;-39
2023/01/11 11:57:37;;;;;;;6.68;0.70;;;;;;;;;;4146551;28;20564;-36
2023/01/11 11:59:44;;;;;;;4.38;0.70;;;;;;;;;;4176010;28;20067;-38
2023/01/11 12:01:47;;;;;;;2.10;0.63;;;;;;;;;;4169949;28;20090;-42
2023/01/11 12:03:51;;;;;;;4.47;0.80;;;;;;;;;;4169043;28;20053;-37
2023/01/11 12:06:03;;;;;;;1.98;0.75;;;;;;;;;;4170456;28;20262;-38
2023/01/11 12:08:05;;;;;;;3.00;1.15;;;;;;;;;;4172858;28;20110;-40
2023/01/11 12:10:14;;;;;;;2.15;0.60;;;;;;;;;;4153381;28;20135;-39
2023/01/11 12:12:17;;;;;;;3.15;1.02;;;;;;;;;;4169865;28;20180;-35
2023/01/11 12:14:29;;;;;;;2.00;0.70;;;;;;;;;;4152494;28;20422;-35
2023/01/11 12:16:37;;;;;;;2.90;0.88;;;;;;;;;;4172387;28;20102;-35
2023/01/11 12:18:41;;;;;;;3.40;0.80;;;;;;;;;;4169054;28;20777;-37
2023/01/11 12:20:43;;;;;;;2.47;0.80;;;;;;;;;;4173798;28;20650;-37
2023/01/11 12:22:44;;;;;;;4.15;0.68;;;;;;;;;;4174849;28;20056;-37
2023/01/11 12:25:07;;;;;;;3.17;0.60;;;;;;;;;;4172971;28;20072;-36
2023/01/11 12:27:33;;;;;;;3.78;0.90;;;;;;;;;;4155393;28;20057;-38
2023/01/11 12:29:45;;;;;;;2.20;0.80;;;;;;;;;;4153431;28;20495;-38
2023/01/11 12:32:04;;;;;;;3.92;0.98;;;;;;;;;;4169185;28;20101;-38
2023/01/11 12:34:32;;;;;;;3.00;0.82;;;;;;;;;;4174940;28;20056;-38
2023/01/11 12:36:40;;;;;;;2.30;0.70;;;;;;;;;;4176263;28;20759;-37
2023/01/11 12:38:51;;;;;;;3.15;0.60;;;;;;;;;;4156100;28;20126;-38
2023/01/11 12:40:58;;;;;;;1.55;0.80;;;;;;;;;;4159340;28;20052;-39
2023/01/11 12:43:21;;;;;;;3.00;0.75;;;;;;;;;;4175842;28;20574;-37
2023/01/11 12:45:31;;;;;;;4.70;0.88;;;;;;;;;;4153847;28;20220;-39
2023/01/11 12:48:14;;;;;;;3.92;0.80;;;;;;;;;;4157097;28;20057;-39
2023/01/11 12:50:58;;;;;;;2.40;0.60;;;;;;;;;;4164970;28;20103;-37
2023/01/11 12:53:14;;;;;;;5.40;0.57;;;;;;;;;;4171836;28;20766;-36
2023/01/11 12:55:48;;;;;;;2.70;0.88;;;;;;;;;;4161748;28;20049;-37
2023/01/11 12:58:25;;;;;;;4.20;0.98;;;;;;;;;;4095099;28;20070;-36
2023/01/11 13:00:42;;;;;;;4.28;0.75;;;;;;;;;;4157886;28;20053;-39
2023/01/11 13:02:58;;;;;;;1.40;0.52;;;;;;;;;;4175167;28;20656;-39
2023/01/11 13:05:05;;;;;;;3.10;0.98;;;;;;;;;;4175450;28;20056;-37
2023/01/11 13:07:11;;;;;;;1.90;0.60;;;;;;;;;;4181183;28;20412;-40